Time;durP1;ratioP1;P1;durP2;ratioP2;P2;SDS_P1;SDS_P2;PMS_P1;PMS_P2;Temp;Humidity;BMP_temperature;BMP_pressure;BME280_temperature;BME280_humidity;BME280_pressure;Samples;Min_cycle;Max_cycle;Signal;HPM_P1;HPM_P2
2022/10/21 00:00:59;;;;;;;13.47;10.93;;;;;;;16.11;95.38;98436.97;5014080;27;103057;-65
2022/10/21 00:03:27;;;;;;;13.60;9.93;;;;;;;16.22;95.32;98426.88;5028473;27;102689;-65
2022/10/21 00:05:55;;;;;;;11.97;10.57;;;;;;;16.20;93.97;98428.88;5013770;28;103270;-65
2022/10/21 00:08:25;;;;;;;22.03;13.63;;;;;;;15.77;96.02;98462.56;5013617;28;103225;-65
2022/10/21 00:10:55;;;;;;;15.63;12.50;;;;;;;15.97;95.27;98442.81;5013025;28;104128;-66
2022/10/21 00:13:24;;;;;;;15.33;12.33;;;;;;;15.77;94.96;98451.91;5017547;27;102691;-65
2022/10/21 00:16:01;;;;;;;16.13;13.87;;;;;;;15.87;95.74;98448.19;5014112;27;102750;-65
2022/10/21 00:18:32;;;;;;;10.53;9.33;;;;;;;16.00;95.68;98447.84;5015350;27;103213;-65
2022/10/21 00:21:00;;;;;;;12.43;11.13;;;;;;;16.11;94.43;98439.63;5015280;27;103271;-65
2022/10/21 00:23:28;;;;;;;15.90;11.63;;;;;;;16.10;94.21;98454.78;5015449;27;102900;-65
2022/10/21 00:25:57;;;;;;;14.47;10.30;;;;;;;16.18;93.86;98436.19;5014583;27;105912;-65
2022/10/21 00:28:25;;;;;;;11.83;9.53;;;;;;;16.17;93.16;98452.31;5013062;28;103383;-65
2022/10/21 00:30:54;;;;;;;18.47;14.23;;;;;;;16.07;93.02;98459.56;5014190;28;103156;-65
2022/10/21 00:33:28;;;;;;;12.53;11.23;;;;;;;16.08;93.23;98455.91;5013553;27;102704;-65
2022/10/21 00:36:01;;;;;;;11.37;9.47;;;;;;;16.10;93.79;98460.09;5014130;28;103434;-65
2022/10/21 00:38:30;;;;;;;12.33;8.83;;;;;;;16.16;93.32;98456.84;5015721;27;103317;-65
2022/10/21 00:40:58;;;;;;;15.27;12.60;;;;;;;16.04;92.34;98459.84;5016063;28;103346;-66
2022/10/21 00:43:27;;;;;;;17.60;11.80;;;;;;;15.94;93.44;98446.63;5011979;27;102687;-65
2022/10/21 00:45:59;;;;;;;12.23;11.03;;;;;;;15.97;92.90;98435.63;5012565;28;103651;-65
2022/10/21 00:48:33;;;;;;;18.03;15.20;;;;;;;15.49;94.92;98440.44;5011908;28;102716;-65
2022/10/21 00:51:06;;;;;;;10.67;9.07;;;;;;;15.85;94.70;98436.00;5013157;27;102983;-64
2022/10/21 00:53:36;;;;;;;10.67;9.03;;;;;;;15.90;93.27;98439.06;5027142;27;102982;-65
2022/10/21 00:56:09;;;;;;;23.23;14.07;;;;;;;15.64;92.57;98436.25;5014728;27;102989;-65
2022/10/21 00:58:46;;;;;;;11.33;9.87;;;;;;;15.80;93.15;98438.28;5009652;27;103364;-65
2022/10/21 01:01:14;;;;;;;18.40;12.13;;;;;;;15.80;93.22;98432.97;5008381;27;103255;-65
2022/10/21 01:03:50;;;;;;;13.40;10.60;;;;;;;15.88;92.52;98435.72;5045085;27;102645;-65
2022/10/21 01:06:20;;;;;;;9.90;8.90;;;;;;;15.89;92.51;98437.38;5013035;27;104461;-65
2022/10/21 01:08:48;;;;;;;9.63;7.67;;;;;;;15.91;92.22;98430.09;5014450;27;103298;-65
2022/10/21 01:11:19;;;;;;;9.83;7.87;;;;;;;15.96;92.23;98431.31;5015808;27;103214;-65
2022/10/21 01:14:10;;;;;;;12.73;9.90;;;;;;;15.99;91.90;98432.84;5016690;27;102933;-65
2022/10/21 01:16:45;;;;;;;10.73;9.20;;;;;;;15.93;91.22;98438.75;5016577;27;103964;-65
2022/10/21 01:20:02;;;;;;;9.43;8.33;;;;;;;15.94;91.98;98432.44;5029417;27;104181;-65
2022/10/21 01:22:50;;;;;;;11.37;8.47;;;;;;;15.98;92.13;98417.81;5002261;27;104379;-65
2022/10/21 01:25:48;;;;;;;11.20;9.53;;;;;;;16.07;92.48;98428.44;5014930;28;103824;-66
2022/10/21 01:28:27;;;;;;;11.17;8.33;;;;;;;16.13;92.03;98421.66;5021220;27;103010;-65
2022/10/21 01:30:59;;;;;;;12.67;10.53;;;;;;;16.04;92.29;98428.72;5047455;27;104192;-65
2022/10/21 01:33:42;;;;;;;11.80;9.93;;;;;;;16.06;92.12;98425.91;5017232;27;103435;-66
2022/10/21 01:36:28;;;;;;;8.70;7.73;;;;;;;16.03;90.87;98431.53;5015779;27;102653;-65
2022/10/21 01:39:17;;;;;;;9.00;8.10;;;;;;;15.92;91.78;98434.41;5047826;27;102803;-65
2022/10/21 01:41:52;;;;;;;12.67;9.30;;;;;;;15.80;92.19;98427.63;5019138;27;103123;-65
2022/10/21 01:44:27;;;;;;;11.83;10.20;;;;;;;15.59;92.81;98411.91;5015604;27;104684;-65
2022/10/21 01:47:00;;;;;;;11.67;10.47;;;;;;;15.76;92.94;98405.78;5015800;28;104036;-65
2022/10/21 01:49:32;;;;;;;18.93;13.67;;;;;;;15.71;92.28;98401.91;5013391;28;103787;-65
2022/10/21 01:52:01;;;;;;;14.57;12.57;;;;;;;15.76;93.21;98397.78;5019576;27;103880;-65
2022/10/21 01:54:33;;;;;;;12.17;10.00;;;;;;;15.83;93.00;98408.69;5019757;27;103241;-65
2022/10/21 01:57:03;;;;;;;11.33;9.57;;;;;;;15.79;93.33;98402.81;5017977;28;102768;-65
2022/10/21 01:59:32;;;;;;;13.90;10.10;;;;;;;15.91;92.99;98414.09;5015976;28;102959;-65
2022/10/21 02:02:06;;;;;;;10.33;8.60;;;;;;;15.93;93.02;98409.44;5014317;27;103331;-65
2022/10/21 02:04:36;;;;;;;12.13;10.40;;;;;;;15.78;93.71;98405.63;5015494;28;104225;-65
2022/10/21 02:07:06;;;;;;;9.33;8.40;;;;;;;15.83;94.04;98406.03;5015083;27;103094;-65
2022/10/21 02:09:33;;;;;;;21.07;14.73;;;;;;;15.66;93.70;98392.53;5018553;27;104040;-65
2022/10/21 02:12:05;;;;;;;20.07;15.13;;;;;;;15.46;96.06;98388.31;5017022;28;103404;-65
2022/10/21 02:14:36;;;;;;;16.93;12.90;;;;;;;15.55;96.71;98392.72;5012681;28;103259;-65
2022/10/21 02:17:09;;;;;;;15.50;12.30;;;;;;;15.77;96.22;98382.66;5017362;28;103429;-65
2022/10/21 02:19:37;;;;;;;15.90;11.53;;;;;;;15.88;95.89;98375.28;5018205;27;102791;-65
2022/10/21 02:22:07;;;;;;;17.80;13.60;;;;;;;15.88;95.81;98369.13;5015933;28;102706;-64
2022/10/21 02:24:42;;;;;;;14.97;12.30;;;;;;;15.84;96.89;98357.06;5013884;28;103398;-65
2022/10/21 02:27:10;;;;;;;12.30;10.53;;;;;;;15.96;96.08;98346.06;5015846;28;102588;-65
2022/10/21 02:29:42;;;;;;;15.70;11.97;;;;;;;16.02;96.06;98341.94;5016590;27;103684;-65
2022/10/21 02:32:22;;;;;;;12.00;10.43;;;;;;;16.08;95.63;98333.34;5013369;28;103480;-65
2022/10/21 02:35:12;;;;;;;19.13;13.87;;;;;;;16.13;95.44;98328.38;5012053;27;103212;-64
2022/10/21 02:37:49;;;;;;;14.47;9.63;;;;;;;16.19;94.83;98331.28;5029371;27;102717;-65
2022/10/21 02:40:20;;;;;;;22.07;15.17;;;;;;;16.12;94.46;98322.22;5016637;27;103028;-65
2022/10/21 02:42:53;;;;;;;21.80;14.50;;;;;;;15.56;98.41;98306.56;5010916;28;104383;-65
2022/10/21 02:45:22;;;;;;;20.83;13.40;;;;;;;15.64;99.16;98303.97;5014619;28;103290;-64
2022/10/21 02:47:51;;;;;;;21.03;13.67;;;;;;;15.39;100.00;98288.72;5014800;28;102960;-65
2022/10/21 02:50:20;;;;;;;18.53;14.00;;;;;;;15.42;100.00;98288.41;5020249;27;104098;-65
2022/10/21 02:52:47;;;;;;;12.43;9.43;;;;;;;15.94;98.64;98299.25;5019422;27;106545;-65
2022/10/21 02:55:16;;;;;;;10.37;9.07;;;;;;;16.09;97.21;98303.03;5016377;28;103278;-64
2022/10/21 02:57:43;;;;;;;19.97;14.00;;;;;;;15.98;97.60;98293.44;5009930;28;102770;-65
2022/10/21 03:00:13;;;;;;;16.57;13.40;;;;;;;16.01;97.68;98287.81;5014728;27;104415;-64
2022/10/21 03:02:41;;;;;;;21.67;14.53;;;;;;;16.02;97.20;98270.84;5012849;27;103810;-64
2022/10/21 03:05:11;;;;;;;20.10;13.13;;;;;;;15.86;98.24;98259.22;5015640;28;103311;-65
2022/10/21 03:07:39;;;;;;;13.03;11.67;;;;;;;15.68;100.00;98256.56;5014697;28;104293;-64
2022/10/21 03:10:08;;;;;;;14.30;10.60;;;;;;;16.05;97.32;98269.69;5017939;27;103936;-64
2022/10/21 03:12:36;;;;;;;17.13;13.03;;;;;;;15.94;97.50;98277.94;5014255;27;104342;-64
2022/10/21 03:15:04;;;;;;;19.37;13.20;;;;;;;15.87;96.66;98276.88;5013959;28;103449;-64
2022/10/21 03:17:32;;;;;;;19.97;13.87;;;;;;;15.51;99.27;98257.41;5014070;28;102714;-64
2022/10/21 03:20:02;;;;;;;18.27;14.60;;;;;;;15.84;97.31;98250.53;5013047;28;102694;-64
2022/10/21 03:22:32;;;;;;;22.63;15.70;;;;;;;15.57;98.27;98241.69;5013723;27;103676;-64
2022/10/21 03:25:00;;;;;;;21.73;16.07;;;;;;;15.86;97.09;98248.56;5016561;27;103301;-64
2022/10/21 03:27:28;;;;;;;19.03;14.20;;;;;;;15.83;97.89;98249.69;5016731;27;103623;-64
2022/10/21 03:29:55;;;;;;;19.60;13.10;;;;;;;15.93;97.37;98257.59;5012194;28;104004;-65
2022/10/21 03:32:23;;;;;;;18.90;13.87;;;;;;;16.05;96.55;98264.38;5014908;27;104144;-65
2022/10/21 03:34:51;;;;;;;19.50;12.40;;;;;;;16.07;96.59;98262.38;5014735;28;103250;-64
2022/10/21 03:37:19;;;;;;;21.33;14.17;;;;;;;15.86;98.05;98259.22;5014707;28;102605;-64
2022/10/21 03:39:48;;;;;;;18.10;13.90;;;;;;;15.78;99.09;98248.50;5014815;28;103882;-63
2022/10/21 03:42:16;;;;;;;24.00;16.27;;;;;;;15.87;97.96;98255.56;5013518;27;103231;-65
2022/10/21 03:44:44;;;;;;;15.93;12.57;;;;;;;16.00;98.01;98256.81;5016388;27;103173;-64
2022/10/21 03:47:14;;;;;;;16.80;14.17;;;;;;;16.17;97.21;98252.44;5014250;27;103071;-65
2022/10/21 03:49:42;;;;;;;17.33;11.30;;;;;;;16.27;96.71;98252.34;5011761;28;103986;-64
2022/10/21 03:52:13;;;;;;;14.63;11.47;;;;;;;16.32;96.34;98250.88;5010657;27;103404;-64
2022/10/21 03:54:40;;;;;;;17.00;13.63;;;;;;;16.12;98.24;98250.25;5014283;28;103508;-64
2022/10/21 03:57:10;;;;;;;16.97;12.83;;;;;;;16.23;97.71;98239.34;5015613;27;102732;-64
2022/10/21 03:59:38;;;;;;;16.70;12.70;;;;;;;16.26;97.40;98243.50;5015230;28;104268;-64
2022/10/21 04:02:05;;;;;;;15.60;13.77;;;;;;;16.20;97.92;98241.47;5010940;27;104013;-64
2022/10/21 04:04:33;;;;;;;19.50;13.57;;;;;;;16.09;98.65;98250.56;5014636;27;103739;-64
2022/10/21 04:07:01;;;;;;;19.77;13.43;;;;;;;16.16;98.52;98240.97;5010980;28;102675;-64
2022/10/21 04:09:29;;;;;;;20.90;14.07;;;;;;;16.22;98.08;98243.00;5015048;27;102794;-64
2022/10/21 04:11:56;;;;;;;13.60;11.67;;;;;;;16.38;97.57;98234.28;5011102;28;103240;-64
2022/10/21 04:14:26;;;;;;;17.07;11.00;;;;;;;16.37;96.98;98234.41;5014601;27;103390;-64
2022/10/21 04:16:54;;;;;;;11.77;10.50;;;;;;;16.53;96.03;98227.38;5011780;27;102656;-64
2022/10/21 04:19:33;;;;;;;14.03;11.13;;;;;;;16.59;95.40;98221.41;5015365;27;104110;-63
2022/10/21 04:22:01;;;;;;;16.77;10.13;;;;;;;16.57;95.50;98223.41;5013124;28;104403;-64
2022/10/21 04:24:29;;;;;;;12.80;10.13;;;;;;;16.57;95.69;98220.72;5018019;27;103273;-63
2022/10/21 04:26:57;;;;;;;12.10;9.63;;;;;;;16.54;96.15;98207.72;5011305;27;102848;-63
2022/10/21 04:29:26;;;;;;;12.53;9.93;;;;;;;16.58;95.67;98214.41;5021711;27;102757;-63
2022/10/21 04:31:54;;;;;;;12.13;8.40;;;;;;;16.65;95.43;98204.75;5012985;28;103245;-63
2022/10/21 04:34:26;;;;;;;11.43;8.43;;;;;;;16.64;95.50;98202.28;5011785;27;103345;-63
2022/10/21 04:36:54;;;;;;;11.77;9.17;;;;;;;16.71;94.69;98195.28;5016631;27;103242;-64
2022/10/21 04:39:26;;;;;;;13.97;11.00;;;;;;;16.67;94.77;98208.09;5012580;28;104312;-63
2022/10/21 04:41:54;;;;;;;16.07;10.07;;;;;;;16.67;94.55;98202.75;5013022;28;103835;-63
2022/10/21 04:44:22;;;;;;;8.03;7.20;;;;;;;16.70;94.60;98199.78;5018519;27;103283;-63
2022/10/21 04:46:51;;;;;;;11.17;8.50;;;;;;;16.73;94.00;98196.78;5011941;27;103585;-63
2022/10/21 04:49:19;;;;;;;11.80;7.83;;;;;;;16.77;93.66;98199.97;5021805;28;102622;-63
2022/10/21 04:51:47;;;;;;;11.73;9.93;;;;;;;16.74;93.84;98203.81;5016802;27;103895;-71
2022/10/21 04:54:15;;;;;;;12.83;10.63;;;;;;;16.56;94.61;98199.56;5023385;27;102641;-72
2022/10/21 04:56:43;;;;;;;16.10;10.93;;;;;;;16.57;94.55;98195.88;5017086;28;102698;-72
2022/10/21 04:59:11;;;;;;;16.77;10.70;;;;;;;16.69;94.19;98194.63;5022972;27;102781;-71
2022/10/21 05:01:41;;;;;;;13.37;10.90;;;;;;;16.60;94.99;98192.91;5015927;27;104223;-72
2022/10/21 05:04:10;;;;;;;17.47;10.77;;;;;;;16.62;95.10;98182.91;5021218;28;103406;-71
2022/10/21 05:06:38;;;;;;;14.70;11.07;;;;;;;16.56;94.82;98191.56;4999122;27;102837;-71
2022/10/21 05:09:06;;;;;;;13.27;10.80;;;;;;;16.62;94.54;98189.06;5010726;27;103633;-72
2022/10/21 05:11:33;;;;;;;14.00;10.73;;;;;;;16.69;94.32;98202.63;5013842;27;103695;-71
2022/10/21 05:14:01;;;;;;;11.93;9.50;;;;;;;16.76;93.83;98188.47;5012633;28;103297;-70
2022/10/21 05:16:29;;;;;;;11.20;9.67;;;;;;;16.80;93.62;98199.66;4998740;27;103326;-73
2022/10/21 05:18:59;;;;;;;13.47;10.07;;;;;;;16.81;93.23;98191.47;4998951;28;102722;-71
2022/10/21 05:21:28;;;;;;;11.27;9.37;;;;;;;16.84;93.14;98192.16;4990908;27;103271;-72
2022/10/21 05:23:57;;;;;;;21.63;11.77;;;;;;;16.72;92.77;98195.13;5004908;28;103298;-72
2022/10/21 05:26:24;;;;;;;12.17;10.10;;;;;;;16.77;93.15;98200.81;5013581;27;103264;-73
2022/10/21 05:28:52;;;;;;;16.77;11.90;;;;;;;16.51;93.74;98197.34;5003626;28;104507;-72
2022/10/21 05:31:20;;;;;;;16.57;12.20;;;;;;;16.39;95.65;98192.47;4989302;28;104346;-71
2022/10/21 05:33:48;;;;;;;14.03;10.00;;;;;;;16.53;95.78;98191.84;5009678;27;103261;-72
2022/10/21 05:36:16;;;;;;;18.33;11.80;;;;;;;16.27;96.42;98188.38;5006766;28;102661;-72
2022/10/21 05:38:48;;;;;;;19.67;12.20;;;;;;;16.45;95.98;98187.31;5007451;28;103914;-72
2022/10/21 05:41:16;;;;;;;14.50;9.33;;;;;;;16.51;95.89;98186.66;4995257;27;104104;-69
2022/10/21 05:43:44;;;;;;;19.63;12.43;;;;;;;16.40;96.12;98194.94;5036074;27;103294;-70
2022/10/21 05:46:14;;;;;;;27.70;12.23;;;;;;;16.19;98.08;98197.19;5013535;28;102828;-70
2022/10/21 05:48:41;;;;;;;27.83;11.77;;;;;;;16.26;98.73;98195.53;5019588;28;102554;-69
2022/10/21 05:51:09;;;;;;;17.73;12.37;;;;;;;15.92;100.00;98184.84;5019584;27;103591;-70
2022/10/21 05:53:38;;;;;;;16.77;12.23;;;;;;;15.88;100.00;98182.66;5017238;28;104303;-69
2022/10/21 05:56:10;;;;;;;15.40;11.17;;;;;;;15.85;100.00;98188.31;5050984;27;103991;-70
2022/10/21 05:58:38;;;;;;;16.17;11.37;;;;;;;15.98;100.00;98188.72;5017688;27;103783;-70
2022/10/21 06:01:06;;;;;;;16.43;11.50;;;;;;;15.85;100.00;98175.81;5020333;27;103354;-69
2022/10/21 06:03:34;;;;;;;14.80;10.70;;;;;;;15.88;100.00;98167.53;5015340;28;103214;-69
2022/10/21 06:06:07;;;;;;;14.23;10.23;;;;;;;15.87;100.00;98170.31;5017876;28;104482;-69
2022/10/21 06:08:38;;;;;;;14.73;10.10;;;;;;;16.14;100.00;98162.19;5020854;28;103897;-69
2022/10/21 06:11:08;;;;;;;10.40;8.97;;;;;;;16.17;100.00;98159.19;5018153;28;104116;-71
2022/10/21 06:13:38;;;;;;;16.57;10.40;;;;;;;15.97;100.00;98171.06;5016034;27;103302;-70
2022/10/21 06:16:07;;;;;;;13.87;9.93;;;;;;;16.14;100.00;98173.66;5009045;28;103843;-69
2022/10/21 06:18:35;;;;;;;14.30;9.20;;;;;;;16.47;100.00;98179.16;5020381;27;105184;-73
2022/10/21 06:21:04;;;;;;;18.10;10.60;;;;;;;16.01;100.00;98178.59;5014653;27;103389;-72
2022/10/21 06:23:31;;;;;;;18.60;10.63;;;;;;;16.09;100.00;98196.44;5022535;27;103234;-73
2022/10/21 06:26:01;;;;;;;14.00;8.97;;;;;;;16.32;100.00;98196.75;5016720;27;102878;-74
2022/10/21 06:28:31;;;;;;;15.37;9.03;;;;;;;16.47;100.00;98205.81;5020692;28;102703;-73
2022/10/21 06:31:01;;;;;;;12.20;8.03;;;;;;;16.50;100.00;98203.69;5016265;27;103950;-74
2022/10/21 06:33:29;;;;;;;13.20;8.13;;;;;;;16.68;100.00;98203.59;5013278;27;104091;-74
2022/10/21 06:35:56;;;;;;;14.30;9.13;;;;;;;16.76;99.54;98208.97;5015921;27;102684;-73
2022/10/21 06:38:25;;;;;;;8.73;6.33;;;;;;;16.90;98.80;98203.00;5013890;27;102635;-73
2022/10/21 06:41:00;;;;;;;11.60;7.90;;;;;;;16.93;98.38;98201.84;5011053;27;105496;-73
2022/10/21 06:43:28;;;;;;;13.47;8.30;;;;;;;16.91;98.23;98212.69;5014704;27;103248;-73
2022/10/21 06:46:01;;;;;;;13.27;7.57;;;;;;;16.86;99.35;98219.50;5013392;28;102707;-73
2022/10/21 06:48:29;;;;;;;9.20;5.90;;;;;;;17.02;98.55;98216.88;5013032;28;103719;-73
2022/10/21 06:51:01;;;;;;;11.13;7.30;;;;;;;16.99;98.66;98211.88;5014077;27;103682;-73
2022/10/21 06:53:29;;;;;;;9.40;6.97;;;;;;;17.03;98.55;98224.75;5013371;28;103339;-73
2022/10/21 06:56:01;;;;;;;10.83;7.13;;;;;;;17.05;98.65;98216.56;5011164;27;103016;-73
2022/10/21 06:58:30;;;;;;;10.70;6.17;;;;;;;17.12;98.42;98222.94;5015236;27;104370;-73
2022/10/21 07:00:57;;;;;;;8.80;5.93;;;;;;;17.04;98.73;98234.41;5013983;27;104081;-73
2022/10/21 07:03:28;;;;;;;12.00;7.67;;;;;;;16.99;99.39;98254.56;5013509;27;103216;-73
2022/10/21 07:06:00;;;;;;;12.00;7.13;;;;;;;17.13;98.91;98262.78;5011317;27;102699;-73
2022/10/21 07:08:29;;;;;;;7.13;5.40;;;;;;;17.31;97.83;98249.34;5011147;27;103677;-73
2022/10/21 07:11:14;;;;;;;11.80;6.37;;;;;;;17.29;97.58;98254.00;5015374;27;103697;-73
2022/10/21 07:13:42;;;;;;;8.63;6.07;;;;;;;17.32;97.39;98248.31;5018566;28;103301;-73
2022/10/21 07:16:24;;;;;;;13.13;6.83;;;;;;;17.35;97.61;98250.66;5013355;27;103674;-74
2022/10/21 07:18:54;;;;;;;11.23;6.93;;;;;;;17.38;97.51;98250.34;5013346;27;103691;-73
2022/10/21 07:21:24;;;;;;;15.87;7.80;;;;;;;17.28;98.04;98247.81;5013300;27;103336;-73
2022/10/21 07:23:53;;;;;;;9.27;6.50;;;;;;;17.20;98.82;98230.97;5013882;27;103259;-73
2022/10/21 07:26:27;;;;;;;9.13;5.83;;;;;;;17.29;98.21;98219.31;5015841;27;103570;-73
2022/10/21 07:28:57;;;;;;;11.60;7.10;;;;;;;17.35;98.32;98191.91;5016250;27;102966;-73
2022/10/21 07:31:25;;;;;;;7.50;5.40;;;;;;;17.37;98.37;98174.72;5013891;27;104035;-74
2022/10/21 07:33:55;;;;;;;9.20;5.80;;;;;;;17.39;98.52;98193.28;5020029;28;103258;-73
2022/10/21 07:36:25;;;;;;;8.73;6.27;;;;;;;17.18;98.96;98219.59;5013367;28;102970;-72
2022/10/21 07:38:55;;;;;;;8.60;5.40;;;;;;;17.33;99.09;98220.63;5017302;27;103834;-73
2022/10/21 07:41:25;;;;;;;8.20;5.33;;;;;;;17.43;98.47;98226.66;5010761;27;104193;-73
2022/10/21 07:43:53;;;;;;;11.73;6.30;;;;;;;17.47;98.20;98221.81;5016245;28;104517;-73
2022/10/21 07:46:22;;;;;;;11.63;7.13;;;;;;;17.57;97.35;98247.38;5018375;28;103350;-72
2022/10/21 07:48:50;;;;;;;13.20;6.97;;;;;;;17.34;97.84;98238.31;5012476;28;103907;-72
2022/10/21 07:51:22;;;;;;;8.03;5.77;;;;;;;17.55;97.58;98246.72;5018842;27;104131;-72
2022/10/21 07:53:56;;;;;;;7.83;5.37;;;;;;;17.50;97.52;98243.69;5017319;28;103231;-72
2022/10/21 07:56:27;;;;;;;12.57;6.43;;;;;;;17.57;97.07;98238.56;5016598;27;102651;-72
2022/10/21 07:58:55;;;;;;;8.40;6.13;;;;;;;17.57;97.10;98244.72;5017699;27;104058;-72
2022/10/21 08:01:23;;;;;;;11.17;6.43;;;;;;;17.52;97.75;98243.50;5013550;27;104057;-72
2022/10/21 08:03:53;;;;;;;10.80;5.67;;;;;;;17.42;98.49;98249.03;5014564;27;103253;-72
2022/10/21 08:06:24;;;;;;;12.97;7.13;;;;;;;17.15;99.98;98265.31;5013662;28;102623;-71
2022/10/21 08:08:52;;;;;;;10.10;7.37;;;;;;;17.33;99.76;98242.81;5018862;27;102617;-72
2022/10/21 08:11:21;;;;;;;11.40;7.25;;;;;;;17.27;99.95;98231.97;5048075;27;104222;-72
2022/10/21 08:13:50;;;;;;;14.38;6.43;;;;;;;17.18;100.00;98231.09;5013638;28;103186;-72
2022/10/21 08:16:17;;;;;;;10.13;6.60;;;;;;;17.19;100.00;98229.28;5022269;27;102837;-72
2022/10/21 08:18:45;;;;;;;10.63;6.53;;;;;;;17.24;100.00;98216.25;5019625;27;102602;-72
2022/10/21 08:21:13;;;;;;;13.20;6.00;;;;;;;17.12;100.00;98229.09;5012964;27;103308;-72
2022/10/21 08:23:42;;;;;;;9.60;6.60;;;;;;;16.95;100.00;98234.56;5015727;28;104206;-72
2022/10/21 08:26:13;;;;;;;11.70;6.50;;;;;;;16.90;100.00;98240.34;5018018;28;103765;-72
2022/10/21 08:28:41;;;;;;;10.67;7.03;;;;;;;17.00;100.00;98242.91;5015879;27;103894;-72
2022/10/21 08:31:11;;;;;;;11.97;7.07;;;;;;;17.04;100.00;98247.75;5017036;28;103606;-72
2022/10/21 08:33:39;;;;;;;15.55;7.53;;;;;;;16.99;100.00;98243.88;5021056;27;105018;-72
2022/10/21 08:36:13;;;;;;;9.65;6.38;;;;;;;17.21;100.00;98227.28;5021327;28;102715;-72
2022/10/21 08:38:42;;;;;;;11.85;7.22;;;;;;;16.97;100.00;98219.22;5022487;27;103597;-72
2022/10/21 08:41:21;;;;;;;12.30;7.00;;;;;;;17.09;100.00;98212.59;5020007;27;103816;-72
2022/10/21 08:43:49;;;;;;;8.80;5.67;;;;;;;17.24;100.00;98205.59;5017264;28;103569;-72
2022/10/21 08:46:22;;;;;;;13.40;7.00;;;;;;;17.34;99.24;98211.63;5017681;28;102694;-72
2022/10/21 08:48:55;;;;;;;8.60;6.10;;;;;;;17.52;98.65;98204.28;4998309;27;103182;-71
2022/10/21 08:51:26;;;;;;;5.70;5.00;;;;;;;17.52;98.38;98204.28;5003837;27;103328;-73
2022/10/21 08:53:59;;;;;;;11.77;6.40;;;;;;;17.38;98.14;98234.31;5009976;28;103500;-73
2022/10/21 08:56:31;;;;;;;11.67;7.33;;;;;;;17.10;100.00;98243.59;5015052;28;104885;-73
2022/10/21 08:58:59;;;;;;;7.67;5.57;;;;;;;17.40;99.75;98227.81;5008110;27;103929;-73
2022/10/21 09:01:32;;;;;;;9.60;5.83;;;;;;;17.50;98.76;98243.69;5010950;27;104323;-71
2022/10/21 09:04:10;;;;;;;8.70;6.50;;;;;;;17.38;99.06;98277.03;5012581;28;103217;-72
2022/10/21 09:06:49;;;;;;;9.87;6.37;;;;;;;17.36;100.00;98300.41;5023397;27;102629;-71
2022/10/21 09:09:25;;;;;;;9.83;6.53;;;;;;;17.37;99.92;98200.63;5011752;27;103902;-73
2022/10/21 09:12:03;;;;;;;10.43;7.60;;;;;;;17.07;100.00;98246.56;5012242;28;104255;-72
2022/10/21 09:15:13;;;;;;;12.70;6.53;;;;;;;17.45;100.00;98286.06;5014605;28;103224;-72
2022/10/21 09:17:52;;;;;;;9.20;6.57;;;;;;;17.41;100.00;98276.72;4930251;28;102930;-72
2022/10/21 09:20:32;;;;;;;10.23;6.40;;;;;;;17.64;100.00;98271.59;5005298;27;104446;-72
2022/10/21 09:23:10;;;;;;;12.53;6.83;;;;;;;17.68;98.90;98268.47;5015291;28;104577;-72
2022/10/21 09:25:48;;;;;;;10.90;6.27;;;;;;;17.89;98.90;98274.13;5014053;27;103263;-71
2022/10/21 09:28:16;;;;;;;7.37;5.10;;;;;;;18.13;98.19;98288.50;5014186;28;102653;-72
2022/10/21 09:30:45;;;;;;;10.00;6.13;;;;;;;18.03;98.48;98299.34;5022640;27;104031;-71
2022/10/21 09:33:23;;;;;;;6.88;5.28;;;;;;;18.17;97.71;98296.00;5019314;27;104380;-71
2022/10/21 09:35:59;;;;;;;13.88;6.82;;;;;;;18.09;98.53;98292.50;5019287;27;103201;-70
2022/10/21 09:38:33;;;;;;;14.63;7.00;;;;;;;18.19;98.91;98304.69;5020045;28;103184;-72
2022/10/21 09:41:05;;;;;;;5.53;4.47;;;;;;;18.43;99.28;98309.19;5020224;27;102804;-72
2022/10/21 09:43:33;;;;;;;6.68;4.55;;;;;;;18.57;97.75;98307.69;5015076;28;104562;-72
2022/10/21 09:46:03;;;;;;;8.52;4.20;;;;;;;18.60;97.78;98310.88;5019502;27;103182;-72
2022/10/21 09:48:40;;;;;;;12.05;5.68;;;;;;;18.50;97.64;98307.53;5017454;27;102572;-71
2022/10/21 09:51:32;;;;;;;9.02;5.13;;;;;;;18.63;97.31;98307.84;5016452;28;102895;-71
2022/10/21 09:54:07;;;;;;;11.73;5.55;;;;;;;18.57;97.36;98318.38;5019347;27;103231;-72
2022/10/21 09:56:42;;;;;;;8.98;4.63;;;;;;;18.63;96.86;98329.25;5017058;28;103282;-71
2022/10/21 09:59:12;;;;;;;8.65;4.93;;;;;;;18.59;96.22;98335.94;5019487;27;102973;-71
2022/10/21 10:01:41;;;;;;;10.23;4.28;;;;;;;18.60;97.63;98337.63;5016981;28;103719;-71
2022/10/21 10:04:11;;;;;;;6.10;3.60;;;;;;;18.59;97.36;98333.25;5020930;27;103288;-71
2022/10/21 10:06:41;;;;;;;9.05;3.72;;;;;;;18.90;95.31;98330.69;5014518;28;103264;-72
2022/10/21 10:09:15;;;;;;;5.07;3.10;;;;;;;18.96;94.61;98328.16;5045983;27;102619;-71
2022/10/21 10:11:52;;;;;;;5.45;3.75;;;;;;;19.14;94.45;98329.78;5020406;27;104368;-71
2022/10/21 10:14:29;;;;;;;7.63;3.63;;;;;;;19.21;94.75;98326.22;5022162;27;103334;-71
2022/10/21 10:16:58;;;;;;;6.18;3.10;;;;;;;19.26;93.81;98323.84;5019544;28;103314;-71
2022/10/21 10:19:28;;;;;;;9.70;3.50;;;;;;;19.32;92.59;98325.00;5016732;28;102723;-71
2022/10/21 10:22:13;;;;;;;6.70;3.78;;;;;;;19.35;92.75;98324.63;5016461;27;104067;-71
2022/10/21 10:24:43;;;;;;;5.35;3.03;;;;;;;19.24;93.69;98319.69;5014986;28;103948;-71
2022/10/21 10:27:16;;;;;;;8.48;3.60;;;;;;;19.11;92.72;98323.72;5018875;27;104521;-71
2022/10/21 10:29:52;;;;;;;9.05;3.38;;;;;;;19.16;92.54;98320.56;5031781;27;102655;-71
2022/10/21 10:32:22;;;;;;;6.07;2.85;;;;;;;19.02;91.89;98332.81;5022393;27;102637;-71
2022/10/21 10:34:56;;;;;;;3.20;2.63;;;;;;;19.14;91.70;98329.78;5019870;28;104047;-71
2022/10/21 10:37:26;;;;;;;6.38;2.95;;;;;;;19.07;91.10;98322.44;5018333;28;103043;-71
2022/10/21 10:39:57;;;;;;;5.43;2.35;;;;;;;19.04;91.61;98327.28;5020389;28;102557;-71
2022/10/21 10:42:30;;;;;;;7.93;3.03;;;;;;;18.98;90.82;98339.53;5019116;27;103467;-71
2022/10/21 10:45:04;;;;;;;6.18;2.92;;;;;;;19.01;91.60;98333.81;5052050;27;103841;-70
2022/10/21 10:47:46;;;;;;;5.75;2.92;;;;;;;18.91;90.49;98337.72;5022123;28;105593;-71
2022/10/21 10:50:45;;;;;;;5.68;2.70;;;;;;;18.92;90.37;98334.00;5051335;27;102773;-71
2022/10/21 10:53:29;;;;;;;6.53;2.95;;;;;;;18.95;89.49;98339.84;5020277;28;102705;-71
2022/10/21 10:56:05;;;;;;;4.57;2.75;;;;;;;18.83;90.96;98330.53;5004379;28;104481;-72
2022/10/21 10:58:38;;;;;;;5.53;2.20;;;;;;;18.94;89.98;98338.22;5005364;27;104815;-71
2022/10/21 11:01:13;;;;;;;4.40;2.40;;;;;;;19.13;89.98;98320.91;5010802;27;103930;-70
2022/10/21 11:03:49;;;;;;;2.90;2.08;;;;;;;19.21;88.14;98330.72;5014731;28;103700;-71
2022/10/21 11:06:21;;;;;;;4.00;2.50;;;;;;;19.26;88.56;98320.31;5015563;27;103244;-73
2022/10/21 11:08:54;;;;;;;4.68;2.40;;;;;;;19.09;87.98;98325.75;5023605;27;103329;-71
2022/10/21 11:11:26;;;;;;;5.63;2.20;;;;;;;19.44;86.89;98323.63;5025099;27;102889;-71
2022/10/21 11:13:57;;;;;;;3.58;2.15;;;;;;;19.39;86.55;98328.69;5018730;27;102848;-71
2022/10/21 11:16:44;;;;;;;4.50;2.00;;;;;;;19.54;86.76;98329.59;5013191;27;103741;-71
2022/10/21 11:19:34;;;;;;;2.65;1.60;;;;;;;19.51;86.83;98325.44;5011524;28;103124;-72
2022/10/21 11:22:11;;;;;;;3.42;2.20;;;;;;;19.47;84.75;98336.69;5015703;28;102616;-72
2022/10/21 11:24:54;;;;;;;3.67;2.10;;;;;;;19.58;85.40;98337.13;5049044;27;103282;-72
2022/10/21 11:27:34;;;;;;;3.22;2.05;;;;;;;19.74;85.01;98330.81;5008650;27;104315;-73
2022/10/21 11:30:09;;;;;;;5.07;2.05;;;;;;;19.96;84.14;98330.00;5009551;27;103240;-71
2022/10/21 11:32:48;;;;;;;2.38;1.77;;;;;;;20.07;84.04;98342.97;5021263;27;103050;-71
2022/10/21 11:35:20;;;;;;;3.33;1.83;;;;;;;20.34;82.16;98338.13;5008573;28;102648;-71